sensor_id;sensor_type;location;lat;lon;timestamp;P1;durP1;ratioP1;P2;durP2;ratioP2
66145;SDS011;52948;60.040;30.320;2023-09-08T00:01:40;4.75;;;1.25;;
66145;SDS011;52948;60.040;30.320;2023-09-08T00:06:42;3.33;;;1.30;;
66145;SDS011;52948;60.040;30.320;2023-09-08T00:11:45;5.85;;;1.42;;
66145;SDS011;52948;60.040;30.320;2023-09-08T00:16:47;2.00;;;1.35;;
66145;SDS011;52948;60.040;30.320;2023-09-08T00:21:50;3.35;;;1.23;;
66145;SDS011;52948;60.040;30.320;2023-09-08T00:26:52;4.22;;;1.60;;
66145;SDS011;52948;60.040;30.320;2023-09-08T00:31:55;2.90;;;1.70;;
66145;SDS011;52948;60.040;30.320;2023-09-08T00:36:58;3.60;;;1.50;;
66145;SDS011;52948;60.040;30.320;2023-09-08T00:42:02;2.33;;;1.60;;
66145;SDS011;52948;60.040;30.320;2023-09-08T00:47:05;4.63;;;1.90;;
66145;SDS011;52948;60.040;30.320;2023-09-08T00:52:07;4.32;;;1.40;;
66145;SDS011;52948;60.040;30.320;2023-09-08T00:57:12;1.73;;;1.17;;
66145;SDS011;52948;60.040;30.320;2023-09-08T01:02:15;2.35;;;1.25;;
66145;SDS011;52948;60.040;30.320;2023-09-08T01:07:18;1.75;;;1.00;;
66145;SDS011;52948;60.040;30.320;2023-09-08T01:12:22;2.30;;;1.38;;
66145;SDS011;52948;60.040;30.320;2023-09-08T01:17:25;3.15;;;0.95;;
66145;SDS011;52948;60.040;30.320;2023-09-08T01:22:40;2.58;;;1.00;;
66145;SDS011;52948;60.040;30.320;2023-09-08T01:28:00;1.67;;;1.00;;
66145;SDS011;52948;60.040;30.320;2023-09-08T01:33:03;2.00;;;1.15;;
66145;SDS011;52948;60.040;30.320;2023-09-08T01:38:06;2.38;;;1.08;;
66145;SDS011;52948;60.040;30.320;2023-09-08T01:43:08;1.27;;;1.02;;
66145;SDS011;52948;60.040;30.320;2023-09-08T01:48:11;1.98;;;1.00;;
66145;SDS011;52948;60.040;30.320;2023-09-08T01:53:13;1.52;;;1.15;;
66145;SDS011;52948;60.040;30.320;2023-09-08T01:58:16;1.70;;;1.10;;
66145;SDS011;52948;60.040;30.320;2023-09-08T02:03:18;3.88;;;1.30;;
66145;SDS011;52948;60.040;30.320;2023-09-08T02:08:20;2.20;;;1.13;;
66145;SDS011;52948;60.040;30.320;2023-09-08T02:13:22;3.17;;;1.20;;
66145;SDS011;52948;60.040;30.320;2023-09-08T02:18:25;2.58;;;1.17;;
66145;SDS011;52948;60.040;30.320;2023-09-08T02:23:27;2.78;;;1.15;;
66145;SDS011;52948;60.040;30.320;2023-09-08T02:28:30;4.32;;;1.38;;
66145;SDS011;52948;60.040;30.320;2023-09-08T02:33:32;2.58;;;1.00;;
66145;SDS011;52948;60.040;30.320;2023-09-08T02:38:35;2.30;;;1.00;;
66145;SDS011;52948;60.040;30.320;2023-09-08T02:43:37;4.50;;;1.60;;
66145;SDS011;52948;60.040;30.320;2023-09-08T02:48:40;3.45;;;1.00;;
66145;SDS011;52948;60.040;30.320;2023-09-08T02:53:43;2.97;;;1.20;;
66145;SDS011;52948;60.040;30.320;2023-09-08T02:58:45;3.28;;;1.20;;
66145;SDS011;52948;60.040;30.320;2023-09-08T03:03:48;4.28;;;1.50;;
66145;SDS011;52948;60.040;30.320;2023-09-08T03:08:52;4.03;;;1.50;;
66145;SDS011;52948;60.040;30.320;2023-09-08T03:13:54;2.15;;;1.05;;
66145;SDS011;52948;60.040;30.320;2023-09-08T03:18:56;2.70;;;1.40;;
66145;SDS011;52948;60.040;30.320;2023-09-08T03:23:59;6.22;;;1.42;;
66145;SDS011;52948;60.040;30.320;2023-09-08T03:29:01;2.03;;;1.23;;
66145;SDS011;52948;60.040;30.320;2023-09-08T03:34:07;2.15;;;1.40;;
66145;SDS011;52948;60.040;30.320;2023-09-08T03:39:09;2.92;;;1.48;;
66145;SDS011;52948;60.040;30.320;2023-09-08T03:44:13;3.58;;;1.27;;
66145;SDS011;52948;60.040;30.320;2023-09-08T03:49:15;2.92;;;1.40;;
66145;SDS011;52948;60.040;30.320;2023-09-08T03:54:17;2.15;;;1.52;;
66145;SDS011;52948;60.040;30.320;2023-09-08T03:59:20;3.17;;;1.50;;
66145;SDS011;52948;60.040;30.320;2023-09-08T04:04:22;5.20;;;1.60;;
66145;SDS011;52948;60.040;30.320;2023-09-08T04:09:24;3.33;;;1.60;;
66145;SDS011;52948;60.040;30.320;2023-09-08T04:14:27;2.60;;;1.60;;
66145;SDS011;52948;60.040;30.320;2023-09-08T04:19:30;6.40;;;1.70;;
66145;SDS011;52948;60.040;30.320;2023-09-08T04:24:35;1.85;;;1.52;;
66145;SDS011;52948;60.040;30.320;2023-09-08T04:29:38;4.63;;;1.70;;
66145;SDS011;52948;60.040;30.320;2023-09-08T04:34:41;3.25;;;1.60;;
66145;SDS011;52948;60.040;30.320;2023-09-08T04:39:43;3.10;;;2.30;;
66145;SDS011;52948;60.040;30.320;2023-09-08T04:44:46;3.92;;;2.72;;
66145;SDS011;52948;60.040;30.320;2023-09-08T04:49:48;6.80;;;2.28;;
66145;SDS011;52948;60.040;30.320;2023-09-08T04:54:50;3.90;;;2.92;;
66145;SDS011;52948;60.040;30.320;2023-09-08T04:59:53;2.13;;;1.90;;
66145;SDS011;52948;60.040;30.320;2023-09-08T05:04:56;3.63;;;1.83;;
66145;SDS011;52948;60.040;30.320;2023-09-08T05:09:59;1.95;;;1.40;;
66145;SDS011;52948;60.040;30.320;2023-09-08T05:15:05;5.15;;;1.80;;
66145;SDS011;52948;60.040;30.320;2023-09-08T05:20:14;5.00;;;3.25;;
66145;SDS011;52948;60.040;30.320;2023-09-08T05:25:17;3.60;;;1.70;;
66145;SDS011;52948;60.040;30.320;2023-09-08T05:30:19;4.38;;;1.38;;
66145;SDS011;52948;60.040;30.320;2023-09-08T05:35:22;2.63;;;1.48;;
66145;SDS011;52948;60.040;30.320;2023-09-08T05:40:25;3.03;;;1.60;;
66145;SDS011;52948;60.040;30.320;2023-09-08T05:45:28;4.72;;;2.03;;
66145;SDS011;52948;60.040;30.320;2023-09-08T05:50:33;3.10;;;1.70;;
66145;SDS011;52948;60.040;30.320;2023-09-08T05:55:35;3.60;;;1.90;;
66145;SDS011;52948;60.040;30.320;2023-09-08T06:00:37;4.93;;;1.80;;
66145;SDS011;52948;60.040;30.320;2023-09-08T06:05:40;2.92;;;1.67;;
66145;SDS011;52948;60.040;30.320;2023-09-08T06:10:42;4.28;;;1.90;;
66145;SDS011;52948;60.040;30.320;2023-09-08T06:15:45;2.78;;;1.55;;
66145;SDS011;52948;60.040;30.320;2023-09-08T06:20:47;1.88;;;1.52;;
66145;SDS011;52948;60.040;30.320;2023-09-08T06:25:50;7.07;;;1.83;;
66145;SDS011;52948;60.040;30.320;2023-09-08T06:30:54;2.25;;;1.48;;
66145;SDS011;52948;60.040;30.320;2023-09-08T06:35:57;2.20;;;1.30;;
66145;SDS011;52948;60.040;30.320;2023-09-08T06:40:59;2.70;;;1.38;;
66145;SDS011;52948;60.040;30.320;2023-09-08T06:46:03;1.77;;;1.45;;
66145;SDS011;52948;60.040;30.320;2023-09-08T06:51:07;2.45;;;1.73;;
66145;SDS011;52948;60.040;30.320;2023-09-08T06:56:09;2.75;;;1.50;;
66145;SDS011;52948;60.040;30.320;2023-09-08T07:01:12;3.05;;;1.55;;
66145;SDS011;52948;60.040;30.320;2023-09-08T07:06:15;3.72;;;1.60;;
66145;SDS011;52948;60.040;30.320;2023-09-08T07:11:18;3.72;;;1.38;;
66145;SDS011;52948;60.040;30.320;2023-09-08T07:16:21;1.90;;;1.20;;
66145;SDS011;52948;60.040;30.320;2023-09-08T07:21:25;5.00;;;1.65;;
66145;SDS011;52948;60.040;30.320;2023-09-08T07:26:27;3.00;;;1.40;;
66145;SDS011;52948;60.040;30.320;2023-09-08T07:31:30;2.85;;;1.55;;
66145;SDS011;52948;60.040;30.320;2023-09-08T07:36:35;2.75;;;1.40;;
66145;SDS011;52948;60.040;30.320;2023-09-08T07:41:39;2.25;;;1.48;;
66145;SDS011;52948;60.040;30.320;2023-09-08T07:46:44;4.60;;;1.50;;
66145;SDS011;52948;60.040;30.320;2023-09-08T07:51:49;2.58;;;1.40;;
66145;SDS011;52948;60.040;30.320;2023-09-08T07:56:52;4.47;;;1.83;;
66145;SDS011;52948;60.040;30.320;2023-09-08T08:01:55;3.25;;;1.38;;
66145;SDS011;52948;60.040;30.320;2023-09-08T08:06:58;5.70;;;2.10;;
66145;SDS011;52948;60.040;30.320;2023-09-08T08:12:01;5.00;;;1.23;;
66145;SDS011;52948;60.040;30.320;2023-09-08T08:17:03;2.25;;;1.40;;
66145;SDS011;52948;60.040;30.320;2023-09-08T08:22:05;3.63;;;1.73;;
66145;SDS011;52948;60.040;30.320;2023-09-08T08:27:08;3.38;;;1.73;;
66145;SDS011;52948;60.040;30.320;2023-09-08T08:32:11;2.60;;;1.50;;
66145;SDS011;52948;60.040;30.320;2023-09-08T08:37:16;2.33;;;1.50;;
66145;SDS011;52948;60.040;30.320;2023-09-08T08:42:19;4.00;;;1.98;;
66145;SDS011;52948;60.040;30.320;2023-09-08T08:47:24;1.25;;;1.15;;
66145;SDS011;52948;60.040;30.320;2023-09-08T08:52:29;2.33;;;1.20;;
66145;SDS011;52948;60.040;30.320;2023-09-08T08:57:31;4.43;;;1.50;;
66145;SDS011;52948;60.040;30.320;2023-09-08T09:02:35;2.38;;;1.30;;
66145;SDS011;52948;60.040;30.320;2023-09-08T09:07:41;4.07;;;1.43;;
66145;SDS011;52948;60.040;30.320;2023-09-08T09:12:44;3.45;;;1.52;;
66145;SDS011;52948;60.040;30.320;2023-09-08T09:17:58;2.55;;;1.33;;
66145;SDS011;52948;60.040;30.320;2023-09-08T09:23:06;3.47;;;1.50;;
66145;SDS011;52948;60.040;30.320;2023-09-08T09:28:09;3.03;;;1.48;;
66145;SDS011;52948;60.040;30.320;2023-09-08T09:33:11;3.05;;;1.60;;
66145;SDS011;52948;60.040;30.320;2023-09-08T09:38:14;1.52;;;1.38;;
66145;SDS011;52948;60.040;30.320;2023-09-08T09:43:16;3.03;;;1.35;;
66145;SDS011;52948;60.040;30.320;2023-09-08T09:48:22;1.60;;;1.25;;
66145;SDS011;52948;60.040;30.320;2023-09-08T09:53:25;2.67;;;1.50;;
66145;SDS011;52948;60.040;30.320;2023-09-08T09:58:27;2.95;;;1.60;;
66145;SDS011;52948;60.040;30.320;2023-09-08T10:03:30;3.17;;;1.63;;
66145;SDS011;52948;60.040;30.320;2023-09-08T10:08:34;4.78;;;1.50;;
66145;SDS011;52948;60.040;30.320;2023-09-08T10:13:39;4.05;;;1.50;;
66145;SDS011;52948;60.040;30.320;2023-09-08T10:18:45;1.73;;;1.40;;
66145;SDS011;52948;60.040;30.320;2023-09-08T10:23:57;2.50;;;1.10;;
66145;SDS011;52948;60.040;30.320;2023-09-08T10:29:03;2.03;;;1.40;;
66145;SDS011;52948;60.040;30.320;2023-09-08T10:34:05;3.08;;;1.30;;
66145;SDS011;52948;60.040;30.320;2023-09-08T10:44:31;3.13;;;1.40;;
66145;SDS011;52948;60.040;30.320;2023-09-08T10:49:37;2.85;;;1.50;;
66145;SDS011;52948;60.040;30.320;2023-09-08T10:54:41;2.75;;;1.38;;
66145;SDS011;52948;60.040;30.320;2023-09-08T11:04:59;3.33;;;1.50;;
66145;SDS011;52948;60.040;30.320;2023-09-08T11:10:01;3.10;;;1.77;;
66145;SDS011;52948;60.040;30.320;2023-09-08T11:15:04;4.07;;;2.03;;
66145;SDS011;52948;60.040;30.320;2023-09-08T11:20:09;2.80;;;1.50;;
66145;SDS011;52948;60.040;30.320;2023-09-08T11:25:12;3.13;;;1.50;;
66145;SDS011;52948;60.040;30.320;2023-09-08T11:30:14;3.00;;;1.20;;
66145;SDS011;52948;60.040;30.320;2023-09-08T11:35:16;1.88;;;1.20;;
66145;SDS011;52948;60.040;30.320;2023-09-08T11:40:23;1.58;;;1.08;;
66145;SDS011;52948;60.040;30.320;2023-09-08T11:45:25;1.60;;;1.40;;
66145;SDS011;52948;60.040;30.320;2023-09-08T11:50:29;2.00;;;1.40;;
66145;SDS011;52948;60.040;30.320;2023-09-08T11:55:31;3.05;;;1.10;;
66145;SDS011;52948;60.040;30.320;2023-09-08T12:00:34;2.53;;;1.10;;
66145;SDS011;52948;60.040;30.320;2023-09-08T12:05:36;2.72;;;1.33;;
66145;SDS011;52948;60.040;30.320;2023-09-08T12:10:39;1.60;;;1.23;;
66145;SDS011;52948;60.040;30.320;2023-09-08T12:15:42;3.13;;;1.10;;
66145;SDS011;52948;60.040;30.320;2023-09-08T12:20:45;2.67;;;1.20;;
66145;SDS011;52948;60.040;30.320;2023-09-08T12:25:48;8.85;;;4.10;;
66145;SDS011;52948;60.040;30.320;2023-09-08T12:30:51;4.32;;;1.52;;
66145;SDS011;52948;60.040;30.320;2023-09-08T12:35:56;6.45;;;1.33;;
66145;SDS011;52948;60.040;30.320;2023-09-08T12:40:59;2.92;;;1.27;;
66145;SDS011;52948;60.040;30.320;2023-09-08T12:46:01;5.88;;;1.60;;
66145;SDS011;52948;60.040;30.320;2023-09-08T12:51:03;1.60;;;1.20;;
66145;SDS011;52948;60.040;30.320;2023-09-08T12:56:05;6.97;;;1.95;;
66145;SDS011;52948;60.040;30.320;2023-09-08T13:01:08;2.88;;;1.45;;
66145;SDS011;52948;60.040;30.320;2023-09-08T13:06:10;3.50;;;1.55;;
66145;SDS011;52948;60.040;30.320;2023-09-08T13:11:12;5.47;;;1.83;;
66145;SDS011;52948;60.040;30.320;2023-09-08T13:16:14;3.97;;;1.80;;
66145;SDS011;52948;60.040;30.320;2023-09-08T13:21:16;2.55;;;1.40;;
66145;SDS011;52948;60.040;30.320;2023-09-08T13:26:19;2.83;;;1.67;;
66145;SDS011;52948;60.040;30.320;2023-09-08T13:31:21;4.10;;;1.70;;
66145;SDS011;52948;60.040;30.320;2023-09-08T13:36:23;2.75;;;1.17;;
66145;SDS011;52948;60.040;30.320;2023-09-08T13:41:43;2.53;;;1.42;;
66145;SDS011;52948;60.040;30.320;2023-09-08T13:46:53;3.05;;;1.58;;
66145;SDS011;52948;60.040;30.320;2023-09-08T13:51:56;3.70;;;1.20;;
66145;SDS011;52948;60.040;30.320;2023-09-08T13:56:59;1.75;;;1.10;;
66145;SDS011;52948;60.040;30.320;2023-09-08T14:02:03;2.22;;;0.90;;
66145;SDS011;52948;60.040;30.320;2023-09-08T14:07:05;4.13;;;1.27;;
66145;SDS011;52948;60.040;30.320;2023-09-08T14:12:07;2.15;;;1.05;;
66145;SDS011;52948;60.040;30.320;2023-09-08T14:17:10;1.83;;;1.20;;
66145;SDS011;52948;60.040;30.320;2023-09-08T14:22:12;2.85;;;0.77;;
66145;SDS011;52948;60.040;30.320;2023-09-08T14:27:14;2.80;;;0.82;;
66145;SDS011;52948;60.040;30.320;2023-09-08T14:32:16;2.88;;;0.95;;
66145;SDS011;52948;60.040;30.320;2023-09-08T14:37:19;2.92;;;1.23;;
66145;SDS011;52948;60.040;30.320;2023-09-08T14:42:21;1.27;;;0.90;;
66145;SDS011;52948;60.040;30.320;2023-09-08T14:47:23;2.15;;;1.05;;
66145;SDS011;52948;60.040;30.320;2023-09-08T14:52:26;2.35;;;1.00;;
66145;SDS011;52948;60.040;30.320;2023-09-08T14:57:28;3.03;;;1.23;;
66145;SDS011;52948;60.040;30.320;2023-09-08T15:02:30;2.63;;;1.00;;
66145;SDS011;52948;60.040;30.320;2023-09-08T15:07:33;2.65;;;0.85;;
66145;SDS011;52948;60.040;30.320;2023-09-08T15:12:35;3.17;;;0.90;;
66145;SDS011;52948;60.040;30.320;2023-09-08T15:17:38;1.75;;;0.95;;
66145;SDS011;52948;60.040;30.320;2023-09-08T15:22:40;4.93;;;1.10;;
66145;SDS011;52948;60.040;30.320;2023-09-08T15:27:42;3.80;;;0.63;;
66145;SDS011;52948;60.040;30.320;2023-09-08T15:32:44;2.15;;;1.10;;
66145;SDS011;52948;60.040;30.320;2023-09-08T15:37:47;1.05;;;0.65;;
66145;SDS011;52948;60.040;30.320;2023-09-08T15:42:49;3.03;;;0.90;;
66145;SDS011;52948;60.040;30.320;2023-09-08T15:47:53;3.35;;;1.88;;
66145;SDS011;52948;60.040;30.320;2023-09-08T15:52:55;1.48;;;0.73;;
66145;SDS011;52948;60.040;30.320;2023-09-08T15:57:58;1.42;;;1.05;;
66145;SDS011;52948;60.040;30.320;2023-09-08T16:03:00;4.18;;;1.92;;
66145;SDS011;52948;60.040;30.320;2023-09-08T16:08:02;4.57;;;1.27;;
66145;SDS011;52948;60.040;30.320;2023-09-08T16:13:04;3.80;;;1.60;;
66145;SDS011;52948;60.040;30.320;2023-09-08T16:18:07;2.45;;;1.45;;
66145;SDS011;52948;60.040;30.320;2023-09-08T16:23:11;2.75;;;1.40;;
66145;SDS011;52948;60.040;30.320;2023-09-08T16:28:13;1.98;;;1.23;;
66145;SDS011;52948;60.040;30.320;2023-09-08T16:33:16;3.97;;;1.25;;
66145;SDS011;52948;60.040;30.320;2023-09-08T16:38:18;3.33;;;1.35;;
66145;SDS011;52948;60.040;30.320;2023-09-08T16:43:20;3.88;;;1.50;;
66145;SDS011;52948;60.040;30.320;2023-09-08T16:48:22;1.85;;;1.30;;
66145;SDS011;52948;60.040;30.320;2023-09-08T16:53:25;2.55;;;1.63;;
66145;SDS011;52948;60.040;30.320;2023-09-08T16:58:27;2.67;;;1.13;;
66145;SDS011;52948;60.040;30.320;2023-09-08T17:03:29;2.10;;;1.15;;
66145;SDS011;52948;60.040;30.320;2023-09-08T17:08:32;2.35;;;1.30;;
66145;SDS011;52948;60.040;30.320;2023-09-08T17:13:34;4.05;;;1.50;;
66145;SDS011;52948;60.040;30.320;2023-09-08T17:18:36;4.68;;;1.55;;
66145;SDS011;52948;60.040;30.320;2023-09-08T17:23:38;3.63;;;1.55;;
66145;SDS011;52948;60.040;30.320;2023-09-08T17:28:41;3.22;;;1.85;;
66145;SDS011;52948;60.040;30.320;2023-09-08T17:33:43;7.70;;;1.52;;
66145;SDS011;52948;60.040;30.320;2023-09-08T17:38:45;4.57;;;1.63;;
66145;SDS011;52948;60.040;30.320;2023-09-08T17:43:47;6.00;;;1.95;;
66145;SDS011;52948;60.040;30.320;2023-09-08T17:48:49;2.22;;;1.83;;
66145;SDS011;52948;60.040;30.320;2023-09-08T17:53:52;4.93;;;2.55;;
66145;SDS011;52948;60.040;30.320;2023-09-08T17:58:54;3.42;;;1.50;;
66145;SDS011;52948;60.040;30.320;2023-09-08T18:03:57;5.43;;;1.95;;
66145;SDS011;52948;60.040;30.320;2023-09-08T18:09:06;6.53;;;2.28;;
66145;SDS011;52948;60.040;30.320;2023-09-08T18:14:09;4.50;;;1.90;;
66145;SDS011;52948;60.040;30.320;2023-09-08T18:19:12;2.92;;;1.30;;
66145;SDS011;52948;60.040;30.320;2023-09-08T18:24:14;4.07;;;1.77;;
66145;SDS011;52948;60.040;30.320;2023-09-08T18:29:17;5.68;;;2.03;;
66145;SDS011;52948;60.040;30.320;2023-09-08T18:34:19;3.50;;;1.58;;
66145;SDS011;52948;60.040;30.320;2023-09-08T18:39:22;3.55;;;1.75;;
66145;SDS011;52948;60.040;30.320;2023-09-08T18:44:24;2.22;;;1.55;;
66145;SDS011;52948;60.040;30.320;2023-09-08T18:49:27;7.72;;;4.38;;
66145;SDS011;52948;60.040;30.320;2023-09-08T18:54:29;8.85;;;4.25;;
66145;SDS011;52948;60.040;30.320;2023-09-08T18:59:34;10.23;;;5.10;;
66145;SDS011;52948;60.040;30.320;2023-09-08T19:04:36;7.05;;;4.30;;
66145;SDS011;52948;60.040;30.320;2023-09-08T19:29:50;5.55;;;2.25;;
66145;SDS011;52948;60.040;30.320;2023-09-08T19:34:52;3.60;;;2.25;;
66145;SDS011;52948;60.040;30.320;2023-09-08T19:39:55;4.43;;;1.88;;
66145;SDS011;52948;60.040;30.320;2023-09-08T19:44:57;6.38;;;2.05;;
66145;SDS011;52948;60.040;30.320;2023-09-08T19:50:00;4.25;;;2.17;;
66145;SDS011;52948;60.040;30.320;2023-09-08T19:55:03;5.28;;;2.20;;
66145;SDS011;52948;60.040;30.320;2023-09-08T20:00:05;3.85;;;2.13;;
66145;SDS011;52948;60.040;30.320;2023-09-08T20:05:14;4.07;;;2.33;;
66145;SDS011;52948;60.040;30.320;2023-09-08T20:10:16;5.10;;;2.33;;
66145;SDS011;52948;60.040;30.320;2023-09-08T20:15:25;10.57;;;2.58;;
66145;SDS011;52948;60.040;30.320;2023-09-08T20:20:29;7.35;;;2.65;;
66145;SDS011;52948;60.040;30.320;2023-09-08T20:25:31;3.42;;;2.17;;
66145;SDS011;52948;60.040;30.320;2023-09-08T20:30:34;12.77;;;3.30;;
66145;SDS011;52948;60.040;30.320;2023-09-08T20:35:40;7.78;;;2.55;;
66145;SDS011;52948;60.040;30.320;2023-09-08T20:40:46;7.70;;;2.88;;
66145;SDS011;52948;60.040;30.320;2023-09-08T20:45:53;5.07;;;2.33;;
66145;SDS011;52948;60.040;30.320;2023-09-08T20:51:12;5.25;;;3.00;;
66145;SDS011;52948;60.040;30.320;2023-09-08T20:56:15;7.22;;;2.60;;
66145;SDS011;52948;60.040;30.320;2023-09-08T21:01:18;7.32;;;2.80;;
66145;SDS011;52948;60.040;30.320;2023-09-08T21:06:20;7.10;;;2.35;;
66145;SDS011;52948;60.040;30.320;2023-09-08T21:11:24;6.38;;;2.97;;
66145;SDS011;52948;60.040;30.320;2023-09-08T21:16:27;7.30;;;2.38;;
66145;SDS011;52948;60.040;30.320;2023-09-08T21:21:31;5.95;;;2.33;;
66145;SDS011;52948;60.040;30.320;2023-09-08T21:26:34;7.93;;;3.22;;
66145;SDS011;52948;60.040;30.320;2023-09-08T21:31:36;6.15;;;2.38;;
66145;SDS011;52948;60.040;30.320;2023-09-08T21:36:39;6.35;;;2.05;;
66145;SDS011;52948;60.040;30.320;2023-09-08T21:41:42;6.60;;;2.40;;
66145;SDS011;52948;60.040;30.320;2023-09-08T21:46:44;6.55;;;2.03;;
66145;SDS011;52948;60.040;30.320;2023-09-08T21:51:46;6.88;;;1.90;;
66145;SDS011;52948;60.040;30.320;2023-09-08T21:56:51;4.50;;;2.03;;
66145;SDS011;52948;60.040;30.320;2023-09-08T22:01:53;6.15;;;2.08;;
66145;SDS011;52948;60.040;30.320;2023-09-08T22:06:58;6.78;;;2.22;;
66145;SDS011;52948;60.040;30.320;2023-09-08T22:12:01;3.88;;;1.65;;
66145;SDS011;52948;60.040;30.320;2023-09-08T22:17:03;5.30;;;1.67;;
66145;SDS011;52948;60.040;30.320;2023-09-08T22:22:06;8.77;;;1.77;;
66145;SDS011;52948;60.040;30.320;2023-09-08T22:27:09;4.85;;;1.88;;
66145;SDS011;52948;60.040;30.320;2023-09-08T22:32:11;4.15;;;1.88;;
66145;SDS011;52948;60.040;30.320;2023-09-08T22:37:13;4.30;;;1.70;;
66145;SDS011;52948;60.040;30.320;2023-09-08T22:42:16;6.95;;;1.80;;
66145;SDS011;52948;60.040;30.320;2023-09-08T22:47:18;3.53;;;1.80;;
66145;SDS011;52948;60.040;30.320;2023-09-08T22:52:21;2.78;;;1.63;;
66145;SDS011;52948;60.040;30.320;2023-09-08T22:57:23;4.32;;;1.67;;
66145;SDS011;52948;60.040;30.320;2023-09-08T23:02:26;3.67;;;1.83;;
66145;SDS011;52948;60.040;30.320;2023-09-08T23:07:28;2.85;;;1.45;;
66145;SDS011;52948;60.040;30.320;2023-09-08T23:12:31;4.25;;;1.48;;
66145;SDS011;52948;60.040;30.320;2023-09-08T23:17:33;3.15;;;1.88;;
66145;SDS011;52948;60.040;30.320;2023-09-08T23:22:35;4.35;;;1.60;;
66145;SDS011;52948;60.040;30.320;2023-09-08T23:27:38;4.60;;;1.90;;
66145;SDS011;52948;60.040;30.320;2023-09-08T23:32:40;2.85;;;1.92;;
66145;SDS011;52948;60.040;30.320;2023-09-08T23:37:43;4.38;;;1.90;;
66145;SDS011;52948;60.040;30.320;2023-09-08T23:42:46;4.13;;;2.25;;
66145;SDS011;52948;60.040;30.320;2023-09-08T23:47:48;4.78;;;1.73;;
66145;SDS011;52948;60.040;30.320;2023-09-08T23:52:50;3.90;;;1.98;;
66145;SDS011;52948;60.040;30.320;2023-09-08T23:57:53;3.63;;;1.73;;
